London Corbin Airport Magee Field
KLOZ : now visible

Airfield :











YOU CAN JOIN US ON...

 
LOGIN :

Register | Disclaimer

   EN    FR    IT 

 









Legend :    VFR   Marginal VFR   IFR   Intensive IFR   Very Intensive IFR
Visi :
Ceiling :
>= 8 km
>= 3000ft
5 to 8 km
1000 to 3000 ft
1500m to 5 km
500 to 1000 ft
800 to 1500m
200 to 500 ft
< 800m
< 200 ft
Symbols :   Thunderstorms  Fog  Heavy snow  Heavy precipitations  Wind > 20 kt







- Airport Elevation : 1212 ft


KLOZ - London Corbin Magee Field

CURRENT METAR :
  • 252353Z AUTO 17009G18KT 10SM FEW085 22/13 A2972 RMK AO2 SLP053 T02170133 10239 20211 58022

EXPIRED METARs :
  • 252253Z AUTO 17007G16KT 10SM CLR 22/14 A2974 RMK AO2 SLP062 T02170144
  • 252153Z AUTO 17009KT 10SM FEW120 22/15 A2977 RMK AO2 SLP069 T02220150

TAF KLOZ
Valid from the 26 at 00:00 until the 27 at 00:00 UTC


252331Z 2600/2624 20008KT P6SM OVC150
FM260100 21008KT P6SM VCSH BKN045 OVC100
FM260600 22009KT 6SM SHRA BR OVC015
FM260900 29012G20KT 3SM SHRA BR OVC010
FM261700 29016G26KT P6SM BKN050
KZID FIR / North America



MET'MAP, your aeronautical weather chart ! - Copyright ORBIFLY December 2007 - Disclaimer

ORBIFLY MET'MAP TEAM :

Programming & Development : Alexandra Zaïnal
Concept & Development : Baudouin d'Aumeries
Co-Development & Prog : Marc-Olivier Méhu
Technical & hardware support : Manuel Goepfert

Contact : metmap@orbifly.com




SOURCES & CREDITS :

   NOAA       Earth
Advisory